Time;durP1;ratioP1;P1;durP2;ratioP2;P2;SDS_P1;SDS_P2;PMS_P1;PMS_P2;Temp;Humidity;BMP_temperature;BMP_pressure;BME280_temperature;BME280_humidity;BME280_pressure;Samples;Min_cycle;Max_cycle;Signal;HPM_P1;HPM_P2
2022/01/30 00:01:25;;;;;;;;;;;6.90;76.60;;;;;;5015559;28;20042;-94
2022/01/30 00:03:58;;;;;;;53.10;11.93;;;6.90;76.80;;;;;;5034792;28;19906;-95
2022/01/30 00:06:29;;;;;;;54.60;10.80;;;6.90;77.50;;;;;;5050534;28;20041;-94
2022/01/30 00:09:23;;;;;;;53.33;13.87;;;6.90;78.00;;;;;;5038236;28;20029;-93
2022/01/30 00:12:07;;;;;;;55.45;10.43;;;6.90;78.00;;;;;;5050285;28;20480;-94
2022/01/30 00:15:19;;;;;;;41.58;9.23;;;6.90;78.20;;;;;;5051111;28;20432;-94
2022/01/30 00:18:09;;;;;;;41.47;9.80;;;6.90;78.40;;;;;;5048977;28;20029;-94
2022/01/30 00:20:39;;;;;;;38.00;10.63;;;6.90;78.60;;;;;;5051652;28;20033;-94
2022/01/30 00:23:24;;;;;;;38.38;9.38;;;6.80;78.90;;;;;;5051980;28;20021;-93
2022/01/30 00:25:57;;;;;;;34.17;8.02;;;6.80;78.80;;;;;;5050264;28;20470;-93
2022/01/30 00:28:26;;;;;;;40.42;11.18;;;6.90;78.50;;;;;;5032705;28;20026;-94
2022/01/30 00:30:56;;;;;;;38.75;8.57;;;6.90;78.20;;;;;;5030011;28;20042;-94
2022/01/30 00:33:27;;;;;;;39.42;8.55;;;6.90;78.30;;;;;;4997896;28;20046;-95
2022/01/30 00:35:56;;;;;;;34.83;8.85;;;6.90;78.30;;;;;;5029692;28;20030;-94
2022/01/30 00:38:23;;;;;;;40.10;8.98;;;6.90;78.50;;;;;;5030941;28;20036;-94
2022/01/30 00:40:56;;;;;;;41.92;8.02;;;6.90;78.80;;;;;;5038299;28;20089;-93
2022/01/30 00:43:24;;;;;;;34.45;7.50;;;6.80;78.90;;;;;;5030880;28;20071;-93
2022/01/30 00:45:53;;;;;;;37.33;10.77;;;6.80;79.10;;;;;;5032947;28;20033;-93
2022/01/30 00:48:29;;;;;;;36.20;10.48;;;6.70;79.40;;;;;;5035003;28;20409;-94
2022/01/30 00:50:57;;;;;;;45.88;9.43;;;6.60;79.80;;;;;;5030143;28;20037;-93
2022/01/30 00:53:25;;;;;;;40.22;8.48;;;6.50;79.70;;;;;;5013950;28;20102;-94
2022/01/30 00:55:56;;;;;;;45.97;12.07;;;6.50;79.30;;;;;;5030952;28;20024;-94
2022/01/30 00:58:22;;;;;;;41.50;8.88;;;6.40;79.00;;;;;;5029002;28;20026;-94
2022/01/30 01:00:53;;;;;;;49.38;10.73;;;6.40;78.50;;;;;;5049413;28;20025;-94
2022/01/30 01:03:27;;;;;;;43.92;9.02;;;6.50;77.90;;;;;;5050659;28;20026;-94
2022/01/30 01:06:04;;;;;;;37.33;10.25;;;6.50;77.70;;;;;;5048710;28;20037;-93
2022/01/30 01:08:49;;;;;;;43.83;9.27;;;6.50;78.40;;;;;;5032682;28;20045;-94
2022/01/30 01:20:55;;;;;;;32.55;7.00;;;6.40;79.30;;;;;;5048741;28;20041;-94
2022/01/30 01:25:19;;;;;;;36.55;6.55;;;6.40;77.90;;;;;;5047527;28;20121;-93
2022/01/30 01:27:48;;;;;;;38.03;7.85;;;6.40;77.50;;;;;;5047963;28;20120;-94
2022/01/30 01:30:42;;;;;;;39.80;8.57;;;6.40;77.30;;;;;;5049848;28;20045;-94
2022/01/30 01:33:08;;;;;;;30.85;8.23;;;6.50;76.90;;;;;;5032491;28;20025;-93
2022/01/30 01:35:54;;;;;;;43.00;8.68;;;6.60;76.00;;;;;;5035060;28;20037;-94
2022/01/30 01:38:38;;;;;;;40.97;7.57;;;6.70;77.20;;;;;;5049993;28;20056;-94
2022/01/30 01:41:26;;;;;;;51.50;10.15;;;6.50;80.20;;;;;;5032183;28;20048;-93
2022/01/30 01:44:29;;;;;;;57.53;11.77;;;6.40;81.60;;;;;;5049983;28;20053;-94
2022/01/30 01:47:19;;;;;;;48.28;14.80;;;6.20;82.10;;;;;;5050987;28;20025;-93
2022/01/30 01:49:47;;;;;;;33.72;7.53;;;6.10;82.00;;;;;;5051329;28;20049;-93
2022/01/30 01:52:23;;;;;;;48.45;11.23;;;6.00;81.50;;;;;;5052437;28;20064;-94
2022/01/30 01:55:21;;;;;;;54.63;11.55;;;6.00;81.60;;;;;;5051779;28;20063;-94
2022/01/30 01:57:49;;;;;;;49.60;9.95;;;6.00;81.80;;;;;;5051331;28;20167;-93
2022/01/30 02:00:31;;;;;;;44.72;10.32;;;6.00;81.70;;;;;;5033519;28;20006;-94
2022/01/30 02:02:58;;;;;;;43.90;10.38;;;6.00;81.50;;;;;;5050261;28;20032;-93
2022/01/30 02:05:51;;;;;;;41.47;9.18;;;6.20;79.30;;;;;;5032605;28;20029;-95
2022/01/30 02:14:48;;;;;;;28.30;8.20;;;6.40;79.20;;;;;;4979578;28;20506;-94
2022/01/30 02:25:43;;;;;;;40.70;9.57;;;6.30;80.40;;;;;;4991189;28;20483;-94
2022/01/30 02:28:24;;;;;;;51.47;9.75;;;6.30;81.30;;;;;;4979684;28;20031;-95
2022/01/30 02:31:18;;;;;;;47.88;9.68;;;6.10;83.80;;;;;;5012579;22;20049;-55
2022/01/30 02:33:39;;;;;;;47.97;12.60;;;5.50;84.90;;;;;;5012532;28;20049;-53
2022/01/30 02:36:09;;;;;;;45.92;11.80;;;5.40;84.30;;;;;;5012514;28;20056;-49
2022/01/30 02:38:37;;;;;;;52.22;9.80;;;5.40;85.20;;;;;;5008866;28;20042;-51
2022/01/30 02:41:04;;;;;;;51.30;10.57;;;5.30;85.90;;;;;;5012900;28;20239;-50
2022/01/30 02:43:36;;;;;;;59.50;13.90;;;5.30;86.40;;;;;;5012883;28;20033;-49
2022/01/30 02:46:22;;;;;;;51.47;11.75;;;5.50;85.60;;;;;;5013042;28;20030;-48
2022/01/30 02:51:18;;;;;;;49.55;13.07;;;5.80;84.50;;;;;;5012939;28;20053;-46
2022/01/30 02:53:55;;;;;;;54.70;10.80;;;5.80;83.40;;;;;;5012967;28;20173;-47
2022/01/30 02:56:22;;;;;;;50.90;13.85;;;5.80;82.20;;;;;;5012769;28;20447;-46
2022/01/30 02:58:49;;;;;;;42.97;10.48;;;5.80;81.90;;;;;;5012627;28;20366;-46
2022/01/30 03:01:18;;;;;;;44.00;10.38;;;5.70;81.80;;;;;;5012039;28;20041;-46
2022/01/30 03:03:45;;;;;;;54.20;12.25;;;5.60;82.10;;;;;;4995426;28;20041;-46
2022/01/30 03:06:15;;;;;;;46.22;11.95;;;5.70;81.80;;;;;;5012848;28;20061;-45
2022/01/30 03:08:42;;;;;;;44.88;13.15;;;5.90;80.80;;;;;;5011449;28;20042;-47
2022/01/30 03:11:08;;;;;;;47.92;9.75;;;5.90;80.60;;;;;;5012144;28;20034;-44
2022/01/30 03:13:38;;;;;;;46.85;10.32;;;6.00;79.60;;;;;;5012977;28;20390;-44
2022/01/30 03:16:05;;;;;;;40.00;8.50;;;6.00;78.10;;;;;;5012106;28;20042;-46
2022/01/30 03:18:32;;;;;;;37.67;9.32;;;5.90;76.50;;;;;;5011954;28;20033;-45
2022/01/30 03:20:59;;;;;;;33.15;7.63;;;5.90;75.50;;;;;;5011876;28;20109;-45
2022/01/30 03:23:26;;;;;;;46.10;10.18;;;5.90;75.80;;;;;;5012256;28;20029;-44
2022/01/30 03:25:57;;;;;;;49.63;9.02;;;5.90;75.30;;;;;;5011956;28;20041;-44
2022/01/30 03:28:23;;;;;;;31.38;8.38;;;5.90;75.40;;;;;;5012348;28;20026;-45
2022/01/30 03:30:54;;;;;;;37.05;8.35;;;5.90;74.80;;;;;;5012069;28;20050;-46
2022/01/30 03:33:22;;;;;;;44.25;7.25;;;5.90;74.80;;;;;;5012316;28;20080;-44
2022/01/30 03:35:49;;;;;;;29.60;7.60;;;5.90;73.90;;;;;;5012230;28;20038;-45
2022/01/30 03:38:16;;;;;;;28.80;7.03;;;6.00;74.40;;;;;;5016163;28;20057;-45
2022/01/30 03:40:45;;;;;;;49.33;8.95;;;6.00;75.50;;;;;;5015541;28;20037;-45
2022/01/30 03:43:13;;;;;;;40.55;7.72;;;6.10;75.30;;;;;;5016006;28;20408;-47
2022/01/30 03:45:41;;;;;;;45.45;10.30;;;6.20;76.20;;;;;;5016138;28;20037;-45
2022/01/30 03:48:09;;;;;;;34.72;8.65;;;6.20;76.70;;;;;;5016523;28;20038;-48
2022/01/30 03:50:36;;;;;;;52.90;10.65;;;6.20;77.00;;;;;;5016586;28;20109;-46
2022/01/30 03:53:02;;;;;;;38.42;10.98;;;6.10;77.10;;;;;;5016566;28;20073;-45
2022/01/30 03:55:29;;;;;;;45.45;9.55;;;6.00;76.40;;;;;;5015857;28;20045;-45
2022/01/30 03:57:56;;;;;;;39.28;9.20;;;6.00;76.40;;;;;;5015894;28;20386;-45
2022/01/30 04:00:23;;;;;;;44.95;11.35;;;6.00;76.00;;;;;;5016087;28;20358;-45
2022/01/30 04:02:50;;;;;;;46.80;11.70;;;6.00;76.10;;;;;;5017255;28;20049;-48
2022/01/30 04:05:17;;;;;;;43.03;9.10;;;6.10;74.90;;;;;;5016332;28;20109;-46
2022/01/30 04:07:47;;;;;;;29.88;8.70;;;6.20;73.70;;;;;;5016598;28;20038;-46
2022/01/30 04:10:16;;;;;;;44.08;7.97;;;6.30;72.50;;;;;;5016352;28;20030;-48
2022/01/30 04:12:43;;;;;;;54.95;10.93;;;6.20;73.50;;;;;;5016726;28;20099;-46
2022/01/30 04:15:13;;;;;;;42.40;10.85;;;6.20;74.10;;;;;;5014940;28;20461;-46
2022/01/30 04:17:39;;;;;;;;;;;6.20;74.00;;;;;;5015772;28;20034;-48
2022/01/30 04:20:06;;;;;;;39.30;9.32;;;6.20;73.90;;;;;;5014910;28;19921;-46
2022/01/30 04:22:34;;;;;;;31.80;9.15;;;6.10;71.90;;;;;;5011240;28;20485;-46
2022/01/30 04:25:02;;;;;;;47.85;9.43;;;6.10;73.70;;;;;;5016252;28;20121;-47
2022/01/30 04:27:29;;;;;;;36.03;9.18;;;6.10;74.60;;;;;;5013926;28;20026;-49
2022/01/30 04:29:55;;;;;;;43.55;7.78;;;6.00;74.50;;;;;;5013801;28;20042;-47
2022/01/30 04:32:23;;;;;;;38.35;7.72;;;6.00;74.10;;;;;;5016289;28;20390;-47
2022/01/30 04:34:58;;;;;;;45.35;10.25;;;5.90;74.10;;;;;;5015283;28;20076;-46
2022/01/30 04:37:48;;;;;;;37.78;11.18;;;5.90;74.60;;;;;;5016301;28;20129;-47
2022/01/30 05:04:46;;;;;;;50.13;9.15;;;6.00;75.50;;;;;;5015491;28;20087;-46
2022/01/30 05:09:39;;;;;;;40.13;9.82;;;6.10;75.80;;;;;;5015091;28;20044;-47
2022/01/30 05:12:06;;;;;;;39.67;10.10;;;6.00;75.50;;;;;;5015376;28;20064;-49
2022/01/30 05:14:36;;;;;;;45.40;9.25;;;6.10;75.00;;;;;;5015438;28;20060;-47
2022/01/30 05:17:07;;;;;;;;;;;6.10;75.60;;;;;;5016227;28;20026;-47
2022/01/30 05:19:34;;;;;;;46.03;10.45;;;6.20;76.10;;;;;;5015330;28;20297;-46
2022/01/30 05:22:01;;;;;;;48.95;10.82;;;6.10;76.50;;;;;;5014126;28;20105;-46
2022/01/30 05:24:28;;;;;;;48.13;11.32;;;6.20;76.10;;;;;;5015109;28;20029;-47
2022/01/30 05:26:55;;;;;;;33.28;7.72;;;6.10;75.70;;;;;;5015523;28;20102;-46
2022/01/30 05:29:22;;;;;;;41.58;9.45;;;6.20;75.80;;;;;;5015104;28;20022;-47
2022/01/30 05:31:49;;;;;;;40.35;10.45;;;6.20;76.10;;;;;;5015128;28;20659;-46
2022/01/30 05:34:16;;;;;;;37.08;8.82;;;6.20;75.70;;;;;;5015451;28;20030;-46
2022/01/30 05:36:45;;;;;;;31.42;7.63;;;6.10;71.70;;;;;;5015236;28;20034;-46
2022/01/30 05:39:13;;;;;;;42.80;8.32;;;6.00;71.10;;;;;;5014691;28;20131;-47
2022/01/30 05:41:40;;;;;;;25.70;6.05;;;5.90;70.70;;;;;;5013796;28;20037;-46
2022/01/30 05:44:12;;;;;;;26.13;6.18;;;5.80;69.80;;;;;;5015066;28;20101;-46
2022/01/30 05:46:52;;;;;;;30.25;6.45;;;5.90;68.50;;;;;;5015057;28;20455;-46
2022/01/30 05:49:21;;;;;;;30.45;6.80;;;5.90;67.20;;;;;;5014729;28;20172;-47
2022/01/30 05:51:48;;;;;;;33.15;7.60;;;5.80;67.60;;;;;;5013947;28;20040;-48
2022/01/30 05:54:16;;;;;;;29.88;6.50;;;5.90;66.70;;;;;;5014825;28;20425;-46
2022/01/30 05:56:42;;;;;;;22.17;5.85;;;5.80;67.20;;;;;;5014923;28;20052;-45
2022/01/30 05:59:09;;;;;;;24.02;6.53;;;5.80;66.90;;;;;;5014318;28;20025;-47
2022/01/30 06:01:38;;;;;;;30.10;7.50;;;5.80;67.50;;;;;;5014788;28;20335;-47
2022/01/30 06:04:06;;;;;;;24.85;6.70;;;5.80;68.20;;;;;;5014145;28;20327;-46
2022/01/30 06:06:33;;;;;;;32.00;9.82;;;5.70;69.00;;;;;;4994192;28;20041;-46
2022/01/30 06:12:00;;;;;;;28.67;5.93;;;5.70;69.50;;;;;;5002636;28;20386;-47
2022/01/30 06:14:27;;;;;;;33.85;7.15;;;5.70;68.40;;;;;;5014215;28;20038;-46
2022/01/30 06:16:56;;;;;;;29.05;6.03;;;5.80;68.10;;;;;;5013637;28;20458;-46
2022/01/30 06:19:22;;;;;;;33.33;7.33;;;5.80;68.50;;;;;;5014334;28;20042;-47
2022/01/30 06:21:49;;;;;;;21.23;6.43;;;5.80;68.40;;;;;;5014059;28;20121;-45
2022/01/30 06:24:19;;;;;;;28.33;6.30;;;5.90;69.00;;;;;;5014457;28;20018;-48
2022/01/30 06:26:45;;;;;;;30.98;6.57;;;5.90;69.10;;;;;;5014470;28;20620;-46
2022/01/30 06:29:11;;;;;;;32.63;7.40;;;5.90;69.00;;;;;;5013461;28;20042;-47
2022/01/30 06:31:38;;;;;;;29.42;5.88;;;6.00;69.20;;;;;;5014073;28;20348;-47
2022/01/30 06:34:05;;;;;;;30.13;6.57;;;6.10;70.00;;;;;;5012908;28;20041;-46
2022/01/30 06:36:32;;;;;;;32.35;8.07;;;6.00;70.70;;;;;;5014178;28;20026;-46
2022/01/30 06:38:58;;;;;;;35.50;8.50;;;6.00;70.90;;;;;;5012853;28;20026;-49
2022/01/30 06:41:25;;;;;;;26.65;5.95;;;6.00;71.10;;;;;;5014007;28;20091;-46
2022/01/30 06:43:55;;;;;;;33.03;7.88;;;5.90;71.50;;;;;;5014060;28;20402;-46
2022/01/30 06:46:21;;;;;;;40.17;7.40;;;6.00;71.50;;;;;;5013851;28;20058;-46
2022/01/30 06:48:51;;;;;;;41.53;9.55;;;6.00;71.90;;;;;;5013926;28;20042;-47
2022/01/30 06:51:17;;;;;;;;;;;6.00;73.00;;;;;;5014515;28;20084;-47
2022/01/30 06:53:44;;;;;;;27.35;9.38;;;6.00;73.20;;;;;;5013933;28;19913;-48
2022/01/30 06:56:09;;;;;;;46.17;8.57;;;5.90;73.60;;;;;;5013652;28;20038;-46
2022/01/30 06:58:36;;;;;;;38.15;8.55;;;5.90;73.70;;;;;;5013790;28;20038;-46
2022/01/30 07:01:03;;;;;;;44.05;8.63;;;5.90;73.70;;;;;;5013821;28;20049;-46
2022/01/30 07:03:30;;;;;;;45.83;8.75;;;5.90;74.00;;;;;;5013802;28;20454;-46
2022/01/30 07:05:56;;;;;;;36.67;8.73;;;5.80;74.20;;;;;;5013005;28;20120;-46
2022/01/30 07:08:23;;;;;;;33.47;9.40;;;5.80;74.10;;;;;;5012794;28;20038;-46
2022/01/30 07:10:50;;;;;;;40.40;10.07;;;5.70;73.90;;;;;;5012817;28;20052;-47
2022/01/30 07:13:17;;;;;;;32.00;9.38;;;5.70;73.80;;;;;;5013777;28;20037;-45
2022/01/30 07:15:44;;;;;;;39.17;9.65;;;5.70;73.50;;;;;;5013284;28;20527;-47
2022/01/30 07:18:09;;;;;;;46.08;9.18;;;5.70;72.70;;;;;;5013377;28;20022;-46
2022/01/30 07:20:37;;;;;;;37.55;8.13;;;5.90;72.40;;;;;;5007311;28;20153;-46
2022/01/30 07:23:04;;;;;;;28.05;6.82;;;5.90;71.20;;;;;;5006319;28;20032;-45
2022/01/30 07:25:30;;;;;;;45.13;8.43;;;6.00;71.00;;;;;;5004646;28;20034;-46
2022/01/30 07:27:56;;;;;;;36.65;11.38;;;6.10;72.20;;;;;;5010205;28;20033;-45
2022/01/30 07:30:28;;;;;;;40.60;10.80;;;6.00;72.60;;;;;;5011557;28;20048;-46
2022/01/30 07:32:55;;;;;;;52.50;10.73;;;5.90;73.70;;;;;;5011115;28;20045;-46
2022/01/30 07:35:22;;;;;;;45.00;10.15;;;5.90;74.30;;;;;;5009770;28;20034;-46
2022/01/30 07:37:49;;;;;;;49.80;11.48;;;5.80;74.40;;;;;;5010406;28;20034;-46
2022/01/30 07:40:16;;;;;;;45.45;10.63;;;5.80;72.80;;;;;;5007945;28;20072;-46
2022/01/30 07:42:43;;;;;;;47.08;12.52;;;5.80;73.70;;;;;;5012173;28;20034;-46
2022/01/30 07:45:12;;;;;;;42.60;8.27;;;5.70;71.80;;;;;;5011187;28;20034;-49
2022/01/30 07:47:38;;;;;;;50.72;10.85;;;5.70;71.90;;;;;;5009911;28;20033;-46
2022/01/30 07:50:06;;;;;;;43.03;10.75;;;5.70;72.50;;;;;;4992169;28;20490;-46
2022/01/30 07:52:32;;;;;;;40.28;9.40;;;5.70;72.40;;;;;;5002473;28;20057;-49
2022/01/30 07:55:01;;;;;;;42.17;9.05;;;5.80;71.00;;;;;;5011667;28;20037;-48
2022/01/30 07:57:28;;;;;;;35.87;8.77;;;5.90;69.90;;;;;;5011117;28;20045;-46
2022/01/30 07:59:55;;;;;;;51.72;10.48;;;5.90;69.00;;;;;;5010858;28;20034;-46
2022/01/30 08:02:22;;;;;;;44.17;8.68;;;6.00;70.80;;;;;;5006929;28;20359;-46
2022/01/30 08:04:48;;;;;;;42.13;10.02;;;6.00;72.20;;;;;;5008088;28;20042;-47
2022/01/30 08:07:15;;;;;;;47.60;9.13;;;6.00;73.20;;;;;;5006793;28;20030;-46
2022/01/30 08:09:42;;;;;;;47.30;9.80;;;6.00;74.30;;;;;;5010464;28;20022;-47
2022/01/30 08:12:09;;;;;;;45.33;8.98;;;6.00;74.30;;;;;;5008872;28;20042;-46
2022/01/30 08:14:36;;;;;;;47.47;10.40;;;6.00;73.60;;;;;;5001819;28;20113;-46
2022/01/30 08:17:04;;;;;;;40.20;9.73;;;6.00;73.00;;;;;;5012968;28;20026;-46
2022/01/30 08:19:31;;;;;;;46.17;10.13;;;6.00;70.80;;;;;;5004803;28;20485;-46
2022/01/30 08:22:00;;;;;;;45.42;9.68;;;5.90;71.20;;;;;;5000626;28;20027;-48
2022/01/30 08:24:27;;;;;;;44.60;9.23;;;5.90;69.60;;;;;;5007937;28;20022;-46
2022/01/30 08:26:54;;;;;;;32.60;6.72;;;5.90;67.50;;;;;;5010393;28;20042;-47
2022/01/30 08:29:20;;;;;;;42.15;9.25;;;5.90;66.20;;;;;;5012154;28;20047;-48
2022/01/30 08:31:46;;;;;;;39.28;7.70;;;5.90;66.10;;;;;;5014810;28;20049;-46
2022/01/30 08:34:13;;;;;;;23.65;7.15;;;5.90;66.10;;;;;;5010604;28;20030;-47
2022/01/30 08:36:40;;;;;;;41.25;8.77;;;6.00;66.00;;;;;;5015378;28;20049;-46
2022/01/30 08:39:07;;;;;;;36.53;8.35;;;6.10;67.00;;;;;;5015647;28;20354;-48
2022/01/30 08:41:34;;;;;;;37.97;9.38;;;6.20;67.60;;;;;;5012382;28;21429;-50
2022/01/30 08:44:01;;;;;;;37.40;8.05;;;6.30;68.00;;;;;;5013424;28;20084;-49
2022/01/30 08:46:27;;;;;;;44.22;8.40;;;6.40;68.20;;;;;;5012867;28;20040;-47
2022/01/30 08:48:54;;;;;;;43.85;8.20;;;6.40;68.30;;;;;;5015494;28;20454;-47
2022/01/30 08:51:24;;;;;;;31.10;10.65;;;6.40;68.90;;;;;;5009425;28;20038;-45
2022/01/30 08:53:51;;;;;;;37.50;10.98;;;6.40;70.30;;;;;;5008446;28;20108;-46
2022/01/30 08:56:21;;;;;;;50.08;9.32;;;6.40;71.70;;;;;;5008466;28;20406;-49
2022/01/30 08:58:51;;;;;;;41.88;10.20;;;6.30;73.30;;;;;;5015115;28;20034;-48
2022/01/30 09:01:18;;;;;;;50.22;9.98;;;6.30;74.20;;;;;;5011953;28;20022;-46
2022/01/30 09:03:44;;;;;;;48.40;11.55;;;6.30;74.50;;;;;;5007609;28;20061;-47
2022/01/30 09:06:10;;;;;;;43.15;9.80;;;6.30;75.30;;;;;;5014070;28;20029;-49
2022/01/30 09:08:37;;;;;;;43.08;10.02;;;6.40;75.70;;;;;;5011756;28;20046;-47
2022/01/30 09:11:05;;;;;;;46.00;12.85;;;6.40;74.90;;;;;;5011627;28;20119;-46
2022/01/30 09:13:31;;;;;;;46.78;10.73;;;6.40;74.70;;;;;;5004293;28;20030;-48
2022/01/30 09:16:01;;;;;;;49.78;11.32;;;6.40;74.00;;;;;;4985344;28;20041;-46
2022/01/30 09:18:29;;;;;;;;;;;6.50;74.10;;;;;;5011875;28;20022;-48
2022/01/30 09:20:55;;;;;;;47.42;10.13;;;6.40;74.20;;;;;;5012516;28;20354;-47
2022/01/30 09:23:23;;;;;;;40.45;9.65;;;6.40;72.60;;;;;;5008605;28;20022;-46
2022/01/30 09:25:50;;;;;;;40.33;9.52;;;6.40;71.30;;;;;;5006965;28;20431;-48
2022/01/30 09:28:17;;;;;;;37.85;8.10;;;6.40;70.10;;;;;;5008440;28;20034;-50
2022/01/30 09:30:43;;;;;;;44.38;12.93;;;6.50;69.20;;;;;;5013176;28;20141;-46
2022/01/30 09:33:11;;;;;;;43.00;8.02;;;6.80;67.60;;;;;;5014620;28;20121;-46
2022/01/30 09:35:38;;;;;;;37.60;10.60;;;6.90;67.00;;;;;;5015123;28;20117;-47
2022/01/30 09:38:07;;;;;;;40.33;9.43;;;6.90;67.20;;;;;;5015153;28;20033;-46
2022/01/30 09:40:34;;;;;;;31.17;8.45;;;6.80;66.60;;;;;;5014812;28;20112;-47
2022/01/30 09:43:03;;;;;;;31.27;7.38;;;6.70;67.20;;;;;;5015151;28;20040;-48
2022/01/30 09:45:30;;;;;;;40.40;10.07;;;6.70;67.20;;;;;;5015089;28;20029;-47
2022/01/30 09:47:57;;;;;;;41.97;10.05;;;6.70;66.30;;;;;;5005005;28;20058;-46
2022/01/30 09:50:23;;;;;;;27.90;7.97;;;6.70;68.10;;;;;;4995588;28;20037;-46
2022/01/30 09:52:53;;;;;;;54.60;10.75;;;6.70;67.70;;;;;;5010867;28;20112;-47
2022/01/30 09:55:20;;;;;;;43.78;11.23;;;6.70;69.40;;;;;;5014911;28;20030;-48
2022/01/30 09:57:48;;;;;;;38.88;8.38;;;6.70;70.10;;;;;;5014463;28;20530;-46
2022/01/30 10:00:18;;;;;;;32.88;7.30;;;6.70;69.30;;;;;;5013459;28;20050;-47
2022/01/30 10:02:48;;;;;;;35.70;8.20;;;6.70;68.70;;;;;;5014390;28;20719;-46
2022/01/30 10:05:16;;;;;;;41.10;9.90;;;6.80;68.40;;;;;;5006642;28;20034;-46
2022/01/30 10:07:52;;;;;;;35.88;8.57;;;6.80;67.60;;;;;;4998271;28;20038;-46
2022/01/30 10:10:24;;;;;;;36.67;8.52;;;6.90;66.60;;;;;;5009007;28;20044;-49
2022/01/30 10:13:09;;;;;;;36.22;8.75;;;7.00;67.40;;;;;;5013712;28;20040;-47
2022/01/30 10:15:56;;;;;;;41.00;10.05;;;7.00;67.70;;;;;;5013461;28;20446;-46
2022/01/30 10:18:26;;;;;;;32.17;8.52;;;7.00;68.80;;;;;;5005883;28;20118;-47
2022/01/30 10:20:53;;;;;;;39.67;8.38;;;6.90;70.30;;;;;;5004458;28;20034;-46
2022/01/30 10:23:31;;;;;;;41.92;10.80;;;6.80;70.10;;;;;;5023429;28;20045;-48
2022/01/30 10:25:58;;;;;;;39.55;8.77;;;6.80;71.10;;;;;;5012567;28;20022;-47
2022/01/30 10:28:31;;;;;;;51.47;11.70;;;6.90;71.40;;;;;;5011075;28;20052;-46
2022/01/30 10:31:00;;;;;;;39.33;10.32;;;6.90;70.90;;;;;;4992290;28;20046;-46
2022/01/30 10:34:01;;;;;;;38.45;8.45;;;6.90;68.20;;;;;;5000745;28;20014;-46
2022/01/30 10:36:31;;;;;;;42.63;8.55;;;6.90;66.60;;;;;;5015798;28;20036;-45
2022/01/30 10:39:14;;;;;;;27.77;6.57;;;7.10;65.80;;;;;;5013488;28;20026;-46
2022/01/30 10:41:45;;;;;;;44.70;8.85;;;7.30;64.40;;;;;;5011838;28;20472;-45
2022/01/30 10:44:15;;;;;;;32.15;7.20;;;7.30;66.50;;;;;;5012544;28;20022;-47
2022/01/30 10:46:45;;;;;;;42.53;8.52;;;7.20;66.70;;;;;;4995268;28;20038;-46
2022/01/30 10:49:20;;;;;;;45.90;8.13;;;7.10;66.90;;;;;;5010558;28;20048;-51
2022/01/30 10:52:00;;;;;;;46.35;11.32;;;7.00;66.80;;;;;;5013819;28;20021;-48
2022/01/30 10:54:32;;;;;;;38.90;10.13;;;6.80;66.70;;;;;;5013245;28;20029;-47
2022/01/30 10:57:09;;;;;;;48.90;8.50;;;6.90;68.50;;;;;;5013184;28;20025;-47
2022/01/30 10:59:43;;;;;;;40.90;10.60;;;7.00;68.60;;;;;;5011033;28;20041;-46
2022/01/30 11:02:21;;;;;;;38.33;7.47;;;7.10;66.20;;;;;;5012564;28;20029;-46
2022/01/30 11:04:49;;;;;;;40.85;8.88;;;7.20;65.80;;;;;;5012985;28;20030;-47
2022/01/30 11:07:20;;;;;;;31.10;6.38;;;7.20;64.50;;;;;;5013431;28;20458;-48
2022/01/30 11:10:05;;;;;;;31.10;7.28;;;7.10;65.70;;;;;;5012760;28;20084;-48
2022/01/30 11:12:40;;;;;;;40.42;8.30;;;7.00;66.50;;;;;;5012756;28;20030;-46
2022/01/30 11:15:23;;;;;;;28.17;6.90;;;7.00;67.30;;;;;;5013264;28;20029;-45
2022/01/30 11:17:50;;;;;;;39.63;9.68;;;7.00;68.00;;;;;;5010405;28;20030;-46
2022/01/30 11:20:16;;;;;;;41.60;8.88;;;7.00;69.70;;;;;;5011555;28;20037;-46
2022/01/30 11:22:46;;;;;;;37.70;9.30;;;7.00;70.00;;;;;;5012342;28;20033;-46
2022/01/30 11:25:15;;;;;;;43.33;9.13;;;6.90;70.90;;;;;;5007542;28;20022;-48
2022/01/30 11:27:43;;;;;;;46.22;14.02;;;6.90;71.10;;;;;;5010785;28;20030;-47
2022/01/30 11:30:11;;;;;;;39.00;8.75;;;6.90;71.70;;;;;;5011484;28;20050;-47
2022/01/30 11:32:41;;;;;;;35.28;8.45;;;6.80;70.50;;;;;;5011977;28;20030;-46
2022/01/30 11:35:08;;;;;;;41.75;10.40;;;6.70;71.80;;;;;;5012091;28;20121;-46
2022/01/30 11:37:39;;;;;;;39.20;8.88;;;6.70;71.30;;;;;;5012258;28;20128;-46
2022/01/30 11:40:15;;;;;;;53.92;9.68;;;6.70;71.00;;;;;;5012523;28;20042;-46
2022/01/30 11:42:48;;;;;;;47.20;9.75;;;6.80;71.20;;;;;;5012578;28;20034;-47
2022/01/30 11:45:16;;;;;;;43.28;9.48;;;6.90;71.20;;;;;;5012923;28;20018;-47
2022/01/30 11:48:10;;;;;;;37.92;8.02;;;6.80;71.30;;;;;;5012740;28;20080;-47
2022/01/30 11:50:37;;;;;;;41.22;9.45;;;6.80;71.10;;;;;;5012929;28;20030;-46
2022/01/30 11:53:26;;;;;;;33.45;8.23;;;7.00;70.30;;;;;;5009208;28;20026;-46
2022/01/30 11:56:10;;;;;;;37.20;9.38;;;7.10;67.20;;;;;;5008137;28;20467;-46
2022/01/30 11:58:41;;;;;;;29.13;7.10;;;7.20;68.10;;;;;;5002786;28;20045;-47
2022/01/30 12:01:24;;;;;;;52.78;8.52;;;7.20;68.70;;;;;;5016858;28;20030;-47
2022/01/30 12:04:01;;;;;;;39.60;8.57;;;7.20;69.50;;;;;;5013289;28;20029;-47
2022/01/30 12:06:28;;;;;;;42.45;8.45;;;7.30;69.80;;;;;;5005006;28;20116;-48
2022/01/30 12:08:59;;;;;;;28.85;7.95;;;7.20;67.80;;;;;;5011317;28;20064;-46
2022/01/30 12:11:37;;;;;;;53.65;9.15;;;7.20;66.50;;;;;;5014719;28;20030;-46
2022/01/30 12:14:10;;;;;;;43.40;7.93;;;7.20;67.00;;;;;;5011461;28;20034;-46
2022/01/30 12:16:52;;;;;;;33.53;8.50;;;7.10;67.00;;;;;;5016291;28;20036;-48
2022/01/30 12:19:40;;;;;;;41.55;10.30;;;7.10;68.60;;;;;;5016406;28;20054;-46
2022/01/30 12:22:23;;;;;;;33.17;7.70;;;7.00;70.00;;;;;;5010702;28;20328;-46
2022/01/30 12:24:53;;;;;;;41.40;9.23;;;7.00;70.90;;;;;;5015177;28;20338;-46
2022/01/30 12:27:19;;;;;;;43.30;8.60;;;6.90;71.00;;;;;;5015110;28;20505;-46
2022/01/30 12:29:51;;;;;;;34.53;8.18;;;6.90;71.90;;;;;;5015922;28;20033;-46
2022/01/30 12:32:22;;;;;;;34.70;7.35;;;6.90;72.80;;;;;;5007876;28;20026;-46
2022/01/30 12:34:54;;;;;;;48.00;10.52;;;6.90;72.70;;;;;;5010846;28;20034;-46
2022/01/30 12:37:36;;;;;;;48.95;11.35;;;6.90;73.10;;;;;;5013660;28;20029;-46
2022/01/30 12:40:23;;;;;;;38.42;7.25;;;6.90;72.70;;;;;;5014373;28;20022;-47
2022/01/30 12:42:50;;;;;;;37.95;9.02;;;6.70;73.20;;;;;;4991368;28;20127;-48
2022/01/30 12:45:17;;;;;;;43.95;8.00;;;6.70;73.80;;;;;;5013097;28;20462;-49
2022/01/30 12:47:57;;;;;;;36.03;7.90;;;6.80;73.30;;;;;;5015094;28;20083;-47
2022/01/30 12:50:32;;;;;;;36.40;8.27;;;7.00;73.20;;;;;;5015501;28;20037;-48
2022/01/30 12:53:01;;;;;;;52.72;11.95;;;7.20;72.90;;;;;;5016213;28;20022;-47
2022/01/30 12:55:28;;;;;;;45.30;7.78;;;7.10;72.00;;;;;;5015929;28;20033;-48
2022/01/30 12:57:58;;;;;;;32.67;8.60;;;7.00;71.00;;;;;;5014805;28;20026;-46
2022/01/30 13:00:25;;;;;;;32.78;8.13;;;7.00;71.30;;;;;;5015799;28;20045;-46
2022/01/30 13:02:59;;;;;;;39.53;8.55;;;7.00;71.80;;;;;;5016006;28;20037;-47
2022/01/30 13:05:29;;;;;;;34.83;8.88;;;6.90;71.50;;;;;;5015214;28;20112;-47
2022/01/30 13:07:58;;;;;;;33.92;7.10;;;6.90;72.20;;;;;;5014974;28;20425;-47
2022/01/30 13:10:26;;;;;;;31.80;6.70;;;6.90;70.70;;;;;;5014813;28;20576;-46
2022/01/30 13:12:55;;;;;;;36.85;7.95;;;6.80;69.20;;;;;;5015760;28;20057;-45
2022/01/30 13:15:23;;;;;;;23.58;6.93;;;6.70;70.10;;;;;;5012418;28;20352;-47
2022/01/30 13:17:51;;;;;;;27.00;5.75;;;6.70;69.80;;;;;;5014312;28;20109;-48
2022/01/30 13:20:22;;;;;;;33.97;7.45;;;6.60;70.30;;;;;;5014879;28;20489;-50
2022/01/30 13:22:51;;;;;;;28.65;7.55;;;6.60;70.80;;;;;;5005033;28;20423;-45
2022/01/30 13:25:21;;;;;;;41.13;7.05;;;6.60;71.40;;;;;;5006580;28;20038;-45
2022/01/30 13:27:52;;;;;;;37.08;8.77;;;6.50;72.70;;;;;;5005270;28;20127;-45
2022/01/30 13:30:29;;;;;;;29.67;7.53;;;6.50;73.90;;;;;;5009414;28;20046;-47
2022/01/30 13:32:56;;;;;;;30.58;7.35;;;6.50;73.90;;;;;;5027849;28;20042;-46
2022/01/30 13:35:28;;;;;;;39.22;7.88;;;6.50;74.00;;;;;;5010286;28;20136;-46
2022/01/30 13:38:00;;;;;;;35.50;8.57;;;6.70;74.50;;;;;;5013081;28;20064;-46
2022/01/30 13:40:41;;;;;;;43.97;10.18;;;6.80;74.70;;;;;;5008989;28;20021;-45
2022/01/30 13:43:16;;;;;;;30.00;6.78;;;7.00;74.50;;;;;;5009783;28;20038;-46
2022/01/30 13:48:20;;;;;;;44.50;8.45;;;7.10;73.00;;;;;;5014018;28;20033;-46
2022/01/30 13:51:03;;;;;;;33.05;6.47;;;7.00;73.40;;;;;;5014823;28;20076;-46
2022/01/30 13:53:33;;;;;;;30.15;5.95;;;6.90;73.90;;;;;;5013813;28;20431;-46
2022/01/30 13:56:17;;;;;;;27.88;6.55;;;6.70;74.70;;;;;;5012147;28;20026;-46
2022/01/30 13:58:50;;;;;;;36.55;6.15;;;6.60;74.90;;;;;;5013616;28;20048;-47
2022/01/30 14:01:19;;;;;;;33.22;7.07;;;6.40;75.20;;;;;;5014221;28;20022;-47
2022/01/30 14:04:01;;;;;;;38.15;9.95;;;6.20;75.50;;;;;;5013801;28;20018;-50
2022/01/30 14:06:34;;;;;;;29.50;7.00;;;6.20;75.60;;;;;;5003478;28;20049;-45